Miles City, MT

11:46 PM MDT on August 19, 2014 (GMT -0600)
Wiley | Change Station
CLOSE
Current Station
Airport
Location: Miles City,
Elevation: 2628 ft
Nearby Weather Stations

Elev 2628 ft 46.43 °N, 105.88 °W | Updated 53 minutes ago

Clear
Clear
82 °F
Feels Like 82 °F
N
4
Wind Variable Wind from South

Today
High -- | Low -- °F
--% Chance of Precip.
Yesterday
High -- | Low -- °F
Precip. -- in
6:07 AM 8:05 PM
Waning Crescent, 24% visible
Pressure 29.56 in
Visibility 10.0 miles
Clouds Clear
Dew Point 45 °F
Humidity 27%
Rainfall 0.00 in
Snow Depth Not available.
UV 0 out of 12
Pollen 9.60 out of 12
Air Quality Not available.
Flu Activity Not available.
METAR KMLS 200453Z AUTO 17003KT 10SM CLR 28/07 A2964 RMK AO2 SLP009 T02780072

More Conditions Fewer Conditions

Pressure 29.56 in
Visibility 10.0 miles
Clouds Clear
Dew Point 45 °F
Humidity 27%
Rainfall 0.00 in
Snow Depth Not available.
UV 0 out of 12
Pollen 9.60 out of 12
Air Quality Not available.
Flu Activity Not available.
METAR KMLS 200453Z AUTO 17003KT 10SM CLR 28/07 A2964 RMK AO2 SLP009 T02780072

More Conditions Fewer Conditions

10-Day Weather Forecast

Almanac

Astronomy

Aug. 19, 2014 Rise Set
Actual Time 6:07 AM MDT 8:05 PM MDT
Civil Twilight 5:34 AM MDT 8:38 PM MDT
Nautical Twilight 4:54 AM MDT 9:18 PM MDT
Astronomical Twilight 4:10 AM MDT 10:01 PM MDT
Moon 12:55 AM MDT (8/19) 4:10 PM MDT (8/19)
Length of Visible Light 15h 03m
Length of Day
13h 58m
Tomorrow will be 3m 1s shorter.
Waning Crescent, 24% of the Moon is Illuminated
Aug 20
Waning Crescent
Aug 25
New
Sep 2
First Quarter
Sep 8
Full
Sep 15
Last Quarter

Yesterday's Extremes

State Highs State Lows

Community

WunderPhotos

Upload Photos

1,745,592 photos uploaded!

Nearby

Snow Depth

Station Depth Elevation
Crystal Lake 0 in 6050 ft
Cole Creek 1 in 7850 ft
Burnt Mountain 0 in 5880 ft
White Mill 1 in 8700 ft
Fisher Creek 0 in 9100 ft

Earthquake Activity

City Distance Mag. Time & Date
No recent earthquake activity has been reported nearby.
Minimum magnitude displayed is 2.5.

Coastal Water Temperatures

Place Temperature
No Stations Reporting

Nearby Weather Stations